createdAt,value
2019-03-27T00:02:24.950Z,29.10
2019-03-27T00:04:54.949Z,21.87
2019-03-27T00:07:24.947Z,21.83
2019-03-27T00:09:54.962Z,20.50
2019-03-27T00:12:25.283Z,24.53
2019-03-27T00:14:55.316Z,26.17
2019-03-27T00:17:25.335Z,23.23
2019-03-27T00:19:55.246Z,24.43
2019-03-27T00:22:25.725Z,25.10
2019-03-27T00:24:55.708Z,26.40
2019-03-27T00:27:25.749Z,21.80
2019-03-27T00:29:55.752Z,27.40
2019-03-27T00:32:25.742Z,24.33
2019-03-27T00:34:55.722Z,31.17
2019-03-27T00:37:26.390Z,29.10
2019-03-27T00:39:56.414Z,25.33
2019-03-27T00:42:26.484Z,25.30
2019-03-27T00:44:56.921Z,26.73
2019-03-27T00:47:26.980Z,28.10
2019-03-27T00:49:57.362Z,27.97
2019-03-27T00:52:27.362Z,20.73
2019-03-27T00:54:57.784Z,26.43
2019-03-27T00:57:28.165Z,29.20
2019-03-27T00:59:58.225Z,23.37
2019-03-27T01:02:28.233Z,21.13
2019-03-27T01:04:58.568Z,35.33
2019-03-27T01:07:28.631Z,31.17
2019-03-27T01:09:58.671Z,25.53
2019-03-27T01:12:29.106Z,25.20
2019-03-27T01:14:59.082Z,26.30
2019-03-27T01:17:29.014Z,27.83
2019-03-27T01:19:59.310Z,27.40
2019-03-27T01:22:29.877Z,30.20
2019-03-27T01:24:59.924Z,30.67
2019-03-27T01:27:29.945Z,26.97
2019-03-27T01:30:00.348Z,32.83
2019-03-27T01:32:30.331Z,28.67
2019-03-27T01:35:00.380Z,33.37
2019-03-27T01:37:31.721Z,30.20
2019-03-27T01:40:01.729Z,30.37
2019-03-27T01:42:31.745Z,29.40
2019-03-27T01:45:01.725Z,23.40
2019-03-27T01:47:31.742Z,33.03
2019-03-27T01:50:01.728Z,26.00
2019-03-27T01:52:32.184Z,26.73
2019-03-27T01:55:02.249Z,27.10
2019-03-27T01:57:32.302Z,26.73
2019-03-27T02:00:02.322Z,29.90
2019-03-27T02:02:32.265Z,21.73
2019-03-27T02:05:02.322Z,23.50
2019-03-27T02:07:32.327Z,25.80
2019-03-27T02:10:02.326Z,25.63
2019-03-27T02:12:32.318Z,21.73
2019-03-27T02:15:02.331Z,24.77
2019-03-27T02:17:32.311Z,27.60
2019-03-27T02:20:02.458Z,29.50
2019-03-27T02:22:32.442Z,23.20
2019-03-27T02:25:02.368Z,26.80
2019-03-27T02:27:32.418Z,28.63
2019-03-27T02:30:02.461Z,31.93
2019-03-27T02:32:32.507Z,25.27
2019-03-27T02:35:02.428Z,29.70
2019-03-27T02:37:32.817Z,27.43
2019-03-27T02:40:02.835Z,29.97
2019-03-27T02:42:33.317Z,26.60
2019-03-27T02:45:03.334Z,28.60
2019-03-27T02:47:33.326Z,30.23
2019-03-27T02:50:03.323Z,28.27
2019-03-27T02:52:33.309Z,29.53
2019-03-27T02:55:03.365Z,29.20
2019-03-27T02:57:33.556Z,36.40
2019-03-27T03:00:03.562Z,29.57
2019-03-27T03:02:33.607Z,25.20
2019-03-27T03:05:03.611Z,28.30
2019-03-27T03:07:33.622Z,37.90
2019-03-27T03:10:03.743Z,31.27
2019-03-27T03:12:33.742Z,29.40
2019-03-27T03:15:04.742Z,34.83
2019-03-27T03:17:34.728Z,37.80
2019-03-27T03:20:05.063Z,37.80
2019-03-27T03:22:35.007Z,29.17
2019-03-27T03:25:05.441Z,33.27
2019-03-27T03:27:35.794Z,34.47
2019-03-27T03:30:07.296Z,40.43
2019-03-27T03:32:37.344Z,38.73
2019-03-27T03:35:07.906Z,39.63
2019-03-27T03:37:38.310Z,38.10
2019-03-27T03:40:09.202Z,47.27
2019-03-27T03:42:39.673Z,33.90
2019-03-27T03:45:09.795Z,49.70
2019-03-27T03:47:39.841Z,35.83
2019-03-27T03:50:15.941Z,37.40
2019-03-27T03:52:46.298Z,34.50
2019-03-27T03:55:16.684Z,43.73
2019-03-27T03:57:47.945Z,33.70
2019-03-27T04:00:17.996Z,24.93
2019-03-27T04:02:48.402Z,40.50
2019-03-27T04:05:21.918Z,33.10
2019-03-27T04:07:51.843Z,37.87
2019-03-27T04:10:21.935Z,36.40
2019-03-27T04:12:51.907Z,34.97
2019-03-27T04:15:22.015Z,39.67
2019-03-27T04:17:52.044Z,37.00
2019-03-27T04:20:22.081Z,41.47
2019-03-27T04:22:52.430Z,39.73
2019-03-27T04:25:22.382Z,40.57
2019-03-27T04:27:52.441Z,38.30
2019-03-27T04:30:22.389Z,40.03
2019-03-27T04:32:52.403Z,46.13
2019-03-27T04:35:22.448Z,29.07
2019-03-27T04:37:52.891Z,41.00
2019-03-27T04:40:23.162Z,43.77
2019-03-27T04:42:53.193Z,33.70
2019-03-27T04:45:23.192Z,41.63
2019-03-27T04:47:53.240Z,42.73
2019-03-27T04:50:23.228Z,35.90
2019-03-27T04:52:53.211Z,37.73
2019-03-27T04:55:23.912Z,37.33
2019-03-27T04:57:54.690Z,44.67
2019-03-27T05:00:24.759Z,51.53
2019-03-27T05:02:54.744Z,54.30
2019-03-27T05:05:27.141Z,46.37
2019-03-27T05:07:58.006Z,43.77
2019-03-27T05:10:28.056Z,47.53
2019-03-27T05:12:58.543Z,44.03
2019-03-27T05:15:28.695Z,43.03
2019-03-27T05:17:59.118Z,37.77
2019-03-27T05:20:29.479Z,42.07
2019-03-27T05:22:59.998Z,38.77
2019-03-27T05:25:30.510Z,46.97
2019-03-27T05:28:00.540Z,44.63
2019-03-27T05:30:30.938Z,42.23
2019-03-27T05:33:00.950Z,48.73
2019-03-27T05:35:30.898Z,45.40
2019-03-27T05:38:00.954Z,49.83
2019-03-27T05:40:31.015Z,48.93
2019-03-27T05:43:01.448Z,50.83
2019-03-27T05:45:31.522Z,49.13
2019-03-27T05:48:01.550Z,56.53
2019-03-27T05:50:31.628Z,50.87
2019-03-27T05:53:01.575Z,48.90
2019-03-27T05:55:32.117Z,53.03
2019-03-27T05:58:02.131Z,59.40
2019-03-27T06:00:33.617Z,62.43
2019-03-27T06:03:03.822Z,47.17
2019-03-27T06:05:33.982Z,48.50
2019-03-27T06:08:04.078Z,47.80
2019-03-27T06:10:34.022Z,58.83
2019-03-27T06:13:04.104Z,48.70
2019-03-27T06:15:34.124Z,42.13
2019-03-27T06:18:12.979Z,51.80
2019-03-27T06:20:36.214Z,46.83
2019-03-27T06:23:06.572Z,48.03
2019-03-27T06:25:36.579Z,37.40
2019-03-27T06:28:06.967Z,34.93
2019-03-27T06:30:37.011Z,31.57
2019-03-27T06:33:07.119Z,31.13
2019-03-27T06:35:38.290Z,29.23
2019-03-27T06:38:08.729Z,31.80
2019-03-27T06:40:39.809Z,33.13
2019-03-27T06:43:10.000Z,33.40
2019-03-27T06:45:40.015Z,28.73
2019-03-27T06:48:10.074Z,29.90
2019-03-27T06:50:40.067Z,31.13
2019-03-27T06:53:10.030Z,32.03
2019-03-27T06:55:40.118Z,33.73
2019-03-27T06:58:10.085Z,29.83
2019-03-27T07:00:40.558Z,27.70
2019-03-27T07:03:10.618Z,26.20
2019-03-27T07:05:40.578Z,31.40
2019-03-27T07:08:10.477Z,27.70
2019-03-27T07:10:40.487Z,23.57
2019-03-27T07:13:10.554Z,24.93
2019-03-27T07:15:40.589Z,21.77
2019-03-27T07:18:10.562Z,20.50
2019-03-27T07:20:41.208Z,18.10
2019-03-27T07:23:11.327Z,23.47
2019-03-27T07:25:41.966Z,23.83
2019-03-27T07:28:12.381Z,23.83
2019-03-27T07:30:42.430Z,20.00
2019-03-27T07:33:12.843Z,23.87
2019-03-27T07:35:43.565Z,20.37
2019-03-27T07:38:13.586Z,20.97
2019-03-27T07:40:43.744Z,21.40
2019-03-27T07:43:13.746Z,18.70
2019-03-27T07:45:43.742Z,23.43
2019-03-27T07:48:13.770Z,20.77
2019-03-27T07:50:43.895Z,19.63
2019-03-27T07:53:14.034Z,22.80
2019-03-27T07:55:44.003Z,18.80
2019-03-27T07:58:13.947Z,17.93
2019-03-27T08:00:44.784Z,17.90
2019-03-27T08:03:14.783Z,20.20
2019-03-27T08:05:44.778Z,18.00
2019-03-27T08:08:14.784Z,16.23
2019-03-27T08:10:44.783Z,18.20
2019-03-27T08:13:15.180Z,22.77
2019-03-27T08:15:45.227Z,20.53
2019-03-27T08:18:15.209Z,19.63
2019-03-27T08:20:45.453Z,19.50
2019-03-27T08:23:15.893Z,19.03
2019-03-27T08:25:45.901Z,19.83
2019-03-27T08:28:15.932Z,14.80
2019-03-27T08:30:45.934Z,16.70
2019-03-27T08:33:15.909Z,18.07
2019-03-27T08:35:45.975Z,15.83
2019-03-27T08:38:16.066Z,16.73
2019-03-27T08:40:46.094Z,13.13
2019-03-27T08:43:21.415Z,16.33
2019-03-27T08:45:47.835Z,20.17
2019-03-27T08:48:17.989Z,16.67
2019-03-27T08:50:48.296Z,14.53
2019-03-27T08:53:18.292Z,20.50
2019-03-27T08:55:48.329Z,15.20
2019-03-27T08:58:18.415Z,16.73
2019-03-27T09:00:53.129Z,18.37
2019-03-27T09:03:24.032Z,16.80
2019-03-27T09:05:54.033Z,14.40
2019-03-27T09:08:23.997Z,14.97
2019-03-27T09:10:54.022Z,16.70
2019-03-27T09:13:24.517Z,16.67
2019-03-27T09:15:55.066Z,15.57
2019-03-27T09:18:25.047Z,15.43
2019-03-27T09:20:55.932Z,19.87
2019-03-27T09:23:26.266Z,19.27
2019-03-27T09:25:56.206Z,12.70
2019-03-27T09:28:26.220Z,15.30
2019-03-27T09:30:56.165Z,14.97
2019-03-27T09:33:26.153Z,12.47
2019-03-27T09:35:56.187Z,14.20
2019-03-27T09:38:26.097Z,16.83
2019-03-27T09:40:56.139Z,16.80
2019-03-27T09:43:26.168Z,13.40
2019-03-27T09:45:56.142Z,13.00
2019-03-27T09:48:26.260Z,11.77
2019-03-27T09:50:56.367Z,11.00
2019-03-27T09:53:26.374Z,8.53
2019-03-27T09:55:56.362Z,12.23
2019-03-27T09:58:26.333Z,14.83
2019-03-27T10:01:07.343Z,8.40
2019-03-27T10:03:37.376Z,7.57
2019-03-27T10:06:08.397Z,9.60
2019-03-27T10:08:38.489Z,9.47
2019-03-27T10:11:08.537Z,7.17
2019-03-27T10:13:38.577Z,8.20
2019-03-27T10:16:09.010Z,8.20
2019-03-27T10:18:38.972Z,5.80
2019-03-27T10:21:09.057Z,11.60
2019-03-27T10:23:39.049Z,10.80
2019-03-27T10:26:09.023Z,7.40
2019-03-27T10:28:39.064Z,8.93
2019-03-27T10:31:09.452Z,8.67
2019-03-27T10:33:39.500Z,6.63
2019-03-27T10:36:09.501Z,7.90
2019-03-27T10:38:41.659Z,9.33
2019-03-27T10:41:11.986Z,5.60
2019-03-27T10:43:41.957Z,7.20
2019-03-27T10:46:11.962Z,8.27
2019-03-27T10:48:52.408Z,8.13
2019-03-27T10:51:14.116Z,9.60
2019-03-27T10:53:44.897Z,10.07
2019-03-27T10:56:14.939Z,8.40
2019-03-27T10:58:45.070Z,4.60
2019-03-27T11:01:15.034Z,8.17
2019-03-27T11:03:45.404Z,4.43
2019-03-27T11:06:15.408Z,6.13
2019-03-27T11:08:45.684Z,8.53
2019-03-27T11:11:15.766Z,5.13
2019-03-27T11:13:46.119Z,7.63
2019-03-27T11:16:16.514Z,9.13
2019-03-27T11:18:46.957Z,8.97
2019-03-27T11:21:17.350Z,7.10
2019-03-27T11:23:47.346Z,4.87
2019-03-27T11:26:17.317Z,6.00
2019-03-27T11:28:47.254Z,7.10
2019-03-27T11:31:17.507Z,6.03
2019-03-27T11:33:47.473Z,8.07
2019-03-27T11:36:17.450Z,7.50
2019-03-27T11:38:47.801Z,6.90
2019-03-27T11:41:18.161Z,8.23
2019-03-27T11:43:54.661Z,3.97
2019-03-27T11:46:19.783Z,5.67
2019-03-27T11:48:49.858Z,5.80
2019-03-27T11:51:19.816Z,7.40
2019-03-27T11:53:49.869Z,5.53
2019-03-27T11:56:19.902Z,6.57
2019-03-27T11:58:49.952Z,6.83
2019-03-27T12:01:19.970Z,7.60
2019-03-27T12:03:49.905Z,7.37
2019-03-27T12:06:19.850Z,7.03
2019-03-27T12:08:51.000Z,6.57
2019-03-27T12:11:21.055Z,9.20
2019-03-27T12:13:51.090Z,5.03
2019-03-27T12:16:21.138Z,6.77
2019-03-27T12:18:51.550Z,5.40
2019-03-27T12:21:21.535Z,3.70
2019-03-27T12:23:51.578Z,3.30
2019-03-27T12:26:21.554Z,7.27
2019-03-27T12:28:51.924Z,4.70
2019-03-27T12:31:21.927Z,5.10
2019-03-27T12:33:52.330Z,3.00
2019-03-27T12:36:22.301Z,5.30
2019-03-27T12:38:52.710Z,5.60
2019-03-27T12:41:22.742Z,3.93
2019-03-27T12:43:54.195Z,8.00
2019-03-27T12:46:24.163Z,6.00
2019-03-27T12:48:55.535Z,4.40
2019-03-27T12:51:25.867Z,5.03
2019-03-27T12:53:56.297Z,5.73
2019-03-27T12:56:26.326Z,5.10
2019-03-27T12:58:56.442Z,5.13
2019-03-27T13:01:26.481Z,6.30
2019-03-27T13:03:56.877Z,5.57
2019-03-27T13:06:27.018Z,4.07
2019-03-27T13:08:56.977Z,5.20
2019-03-27T13:11:27.435Z,6.80
2019-03-27T13:13:57.555Z,6.37
2019-03-27T13:16:28.114Z,5.53
2019-03-27T13:18:58.125Z,6.37
2019-03-27T13:21:28.937Z,7.10
2019-03-27T13:23:58.910Z,4.23
2019-03-27T13:26:29.826Z,6.37
2019-03-27T13:29:00.240Z,4.33
2019-03-27T13:31:30.213Z,4.07
2019-03-27T13:34:00.270Z,3.80
2019-03-27T13:36:30.703Z,3.80
2019-03-27T13:39:01.446Z,5.07
2019-03-27T13:41:31.498Z,4.50
2019-03-27T13:44:01.707Z,3.97
2019-03-27T13:46:31.723Z,7.90
2019-03-27T13:49:01.781Z,4.87
2019-03-27T13:51:40.640Z,3.53
2019-03-27T13:54:03.490Z,5.30
2019-03-27T13:56:33.503Z,3.57
2019-03-27T13:59:03.602Z,5.33
2019-03-27T14:01:33.575Z,3.80
2019-03-27T14:04:04.157Z,5.50
2019-03-27T14:06:35.126Z,3.70
2019-03-27T14:09:07.606Z,7.57
2019-03-27T14:11:37.582Z,6.07
2019-03-27T14:14:11.523Z,4.13
2019-03-27T14:16:39.536Z,4.53
2019-03-27T14:19:09.504Z,4.73
2019-03-27T14:21:53.362Z,3.87
2019-03-27T14:24:11.210Z,7.10
2019-03-27T14:26:45.484Z,4.80
2019-03-27T14:29:13.364Z,6.80
2019-03-27T14:31:43.568Z,7.00
2019-03-27T14:34:13.557Z,4.50
2019-03-27T14:36:44.311Z,4.10
2019-03-27T14:39:15.362Z,5.13
2019-03-27T14:41:45.424Z,4.17
2019-03-27T14:44:15.472Z,4.13
2019-03-27T14:46:45.522Z,5.83
2019-03-27T14:49:15.583Z,4.30
2019-03-27T14:51:45.558Z,6.97
2019-03-27T14:54:15.554Z,5.33
2019-03-27T14:56:45.551Z,4.03
2019-03-27T14:59:15.562Z,4.20
2019-03-27T15:01:45.659Z,6.77
2019-03-27T15:04:16.489Z,5.30
2019-03-27T15:06:46.854Z,4.30
2019-03-27T15:09:17.223Z,4.27
2019-03-27T15:11:47.418Z,3.43
2019-03-27T15:14:17.523Z,5.40
2019-03-27T15:16:47.594Z,5.37
2019-03-27T15:19:17.538Z,6.00
2019-03-27T15:21:47.669Z,5.03
2019-03-27T15:24:20.450Z,5.50
2019-03-27T15:26:49.316Z,3.40
2019-03-27T15:29:19.373Z,5.17
2019-03-27T15:31:49.345Z,5.40
2019-03-27T15:34:20.001Z,5.00
2019-03-27T15:36:50.082Z,6.53
2019-03-27T15:39:20.146Z,7.57
2019-03-27T15:41:50.526Z,5.63
2019-03-27T15:44:21.031Z,8.27
2019-03-27T15:46:51.069Z,4.93
2019-03-27T15:49:21.049Z,5.57
2019-03-27T15:51:51.102Z,4.10
2019-03-27T15:54:21.073Z,4.57
2019-03-27T15:56:51.061Z,5.27
2019-03-27T15:59:21.535Z,5.30
2019-03-27T16:01:51.949Z,5.33
2019-03-27T16:04:21.940Z,6.60
2019-03-27T16:06:51.937Z,5.40
2019-03-27T16:09:22.105Z,4.90
2019-03-27T16:11:52.819Z,5.53
2019-03-27T16:14:22.882Z,5.00
2019-03-27T16:17:12.031Z,7.57
2019-03-27T16:19:24.552Z,5.07
2019-03-27T16:21:54.902Z,7.13
2019-03-27T16:24:24.916Z,5.00
2019-03-27T16:27:04.362Z,6.17
2019-03-27T16:29:26.578Z,9.00
2019-03-27T16:31:56.606Z,5.30
2019-03-27T16:34:26.678Z,4.33
2019-03-27T16:36:57.024Z,8.40
2019-03-27T16:39:27.612Z,8.13
2019-03-27T16:41:59.014Z,8.97
2019-03-27T16:44:29.097Z,12.70
2019-03-27T16:46:59.142Z,8.77
2019-03-27T16:49:31.997Z,5.67
2019-03-27T16:52:02.479Z,7.70
2019-03-27T16:54:33.457Z,6.43
2019-03-27T16:57:03.531Z,7.47
2019-03-27T16:59:33.986Z,5.97
2019-03-27T17:02:04.684Z,7.20
2019-03-27T17:04:34.701Z,7.93
2019-03-27T17:07:04.767Z,8.10
2019-03-27T17:09:35.104Z,7.40
2019-03-27T17:12:05.289Z,10.93
2019-03-27T17:14:35.386Z,9.03
2019-03-27T17:17:05.603Z,7.10
2019-03-27T17:19:35.991Z,5.63
2019-03-27T17:22:18.961Z,9.37
2019-03-27T17:24:37.662Z,6.53
2019-03-27T17:27:07.970Z,7.93
2019-03-27T17:29:38.271Z,7.90
2019-03-27T17:32:08.283Z,5.87
2019-03-27T17:34:38.261Z,8.00
2019-03-27T17:37:08.654Z,5.80
2019-03-27T17:39:38.689Z,9.13
2019-03-27T17:42:09.121Z,6.97
2019-03-27T17:44:39.522Z,8.80
2019-03-27T17:47:09.980Z,9.83
2019-03-27T17:49:40.883Z,11.43
2019-03-27T17:52:11.064Z,6.90
2019-03-27T17:54:41.126Z,7.03
2019-03-27T17:57:11.211Z,8.63
2019-03-27T17:59:41.480Z,9.13
2019-03-27T18:02:12.042Z,9.10
2019-03-27T18:04:42.412Z,10.07
2019-03-27T18:07:12.881Z,11.27
2019-03-27T18:09:43.306Z,10.80
2019-03-27T18:12:13.651Z,9.73
2019-03-27T18:14:43.692Z,10.43
2019-03-27T18:17:13.726Z,10.70
2019-03-27T18:19:43.769Z,10.33
2019-03-27T18:22:13.787Z,10.20
2019-03-27T18:24:43.776Z,9.00
2019-03-27T18:27:13.782Z,9.57
2019-03-27T18:29:43.842Z,10.17
2019-03-27T18:32:13.826Z,10.13
2019-03-27T18:34:43.941Z,9.27
2019-03-27T18:37:14.230Z,11.77
2019-03-27T18:39:44.323Z,8.90
2019-03-27T18:42:15.348Z,10.50
2019-03-27T18:44:46.042Z,9.30
2019-03-27T18:47:16.050Z,11.30
2019-03-27T18:49:46.387Z,6.97
2019-03-27T18:52:17.945Z,10.83
2019-03-27T18:54:48.276Z,7.90
2019-03-27T18:57:18.350Z,10.00
2019-03-27T18:59:48.346Z,9.43
